sensor_id;sensor_type;location;lat;lon;timestamp;P1;durP1;ratioP1;P2;durP2;ratioP2
44272;SDS011;29964;17.182;-96.766;2023-03-01T00:02:01;4.70;;;1.23;;
44272;SDS011;29964;17.182;-96.766;2023-03-01T00:04:30;0.73;;;0.63;;
44272;SDS011;29964;17.182;-96.766;2023-03-01T00:06:56;1.35;;;0.90;;
44272;SDS011;29964;17.182;-96.766;2023-03-01T00:09:23;1.75;;;1.20;;
44272;SDS011;29964;17.182;-96.766;2023-03-01T00:11:50;1.40;;;0.68;;
44272;SDS011;29964;17.182;-96.766;2023-03-01T00:14:16;3.58;;;1.33;;
44272;SDS011;29964;17.182;-96.766;2023-03-01T00:16:43;1.65;;;0.90;;
44272;SDS011;29964;17.182;-96.766;2023-03-01T00:19:14;2.15;;;1.23;;
44272;SDS011;29964;17.182;-96.766;2023-03-01T00:21:41;2.13;;;0.88;;
44272;SDS011;29964;17.182;-96.766;2023-03-01T00:24:08;1.50;;;1.08;;
44272;SDS011;29964;17.182;-96.766;2023-03-01T00:26:35;1.83;;;1.15;;
44272;SDS011;29964;17.182;-96.766;2023-03-01T00:29:02;1.80;;;1.17;;
44272;SDS011;29964;17.182;-96.766;2023-03-01T00:31:30;1.73;;;1.10;;
44272;SDS011;29964;17.182;-96.766;2023-03-01T00:33:58;2.38;;;1.42;;
44272;SDS011;29964;17.182;-96.766;2023-03-01T00:36:26;1.98;;;1.20;;
44272;SDS011;29964;17.182;-96.766;2023-03-01T00:38:53;1.90;;;1.25;;
44272;SDS011;29964;17.182;-96.766;2023-03-01T00:41:20;0.63;;;0.63;;
44272;SDS011;29964;17.182;-96.766;2023-03-01T00:43:48;5.18;;;1.42;;
44272;SDS011;29964;17.182;-96.766;2023-03-01T00:46:16;3.88;;;1.17;;
44272;SDS011;29964;17.182;-96.766;2023-03-01T00:48:43;6.78;;;1.52;;
44272;SDS011;29964;17.182;-96.766;2023-03-01T00:51:15;1.58;;;0.95;;
44272;SDS011;29964;17.182;-96.766;2023-03-01T00:53:41;2.20;;;1.17;;
44272;SDS011;29964;17.182;-96.766;2023-03-01T00:56:09;1.23;;;0.77;;
44272;SDS011;29964;17.182;-96.766;2023-03-01T00:58:36;1.38;;;1.15;;
44272;SDS011;29964;17.182;-96.766;2023-03-01T01:01:09;2.47;;;1.48;;
44272;SDS011;29964;17.182;-96.766;2023-03-01T01:06:36;2.60;;;1.40;;
44272;SDS011;29964;17.182;-96.766;2023-03-01T01:09:04;1.47;;;1.07;;
44272;SDS011;29964;17.182;-96.766;2023-03-01T01:11:31;3.90;;;1.53;;
44272;SDS011;29964;17.182;-96.766;2023-03-01T01:13:58;2.33;;;1.30;;
44272;SDS011;29964;17.182;-96.766;2023-03-01T01:16:26;5.40;;;1.13;;
44272;SDS011;29964;17.182;-96.766;2023-03-01T01:18:53;4.67;;;1.27;;
44272;SDS011;29964;17.182;-96.766;2023-03-01T01:21:21;3.17;;;1.40;;
44272;SDS011;29964;17.182;-96.766;2023-03-01T01:23:48;3.13;;;1.80;;
44272;SDS011;29964;17.182;-96.766;2023-03-01T01:26:16;3.00;;;1.47;;
44272;SDS011;29964;17.182;-96.766;2023-03-01T01:28:43;3.97;;;1.90;;
44272;SDS011;29964;17.182;-96.766;2023-03-01T01:31:10;2.97;;;1.60;;
44272;SDS011;29964;17.182;-96.766;2023-03-01T01:33:39;6.20;;;2.17;;
44272;SDS011;29964;17.182;-96.766;2023-03-01T01:36:06;3.90;;;2.23;;
44272;SDS011;29964;17.182;-96.766;2023-03-01T01:38:34;20.97;;;3.27;;
44272;SDS011;29964;17.182;-96.766;2023-03-01T01:41:00;7.03;;;2.70;;
44272;SDS011;29964;17.182;-96.766;2023-03-01T01:45:59;1.87;;;1.17;;
44272;SDS011;29964;17.182;-96.766;2023-03-01T01:48:40;2.77;;;1.50;;
44272;SDS011;29964;17.182;-96.766;2023-03-01T01:51:12;1.97;;;1.27;;
44272;SDS011;29964;17.182;-96.766;2023-03-01T01:53:39;3.40;;;1.50;;
44272;SDS011;29964;17.182;-96.766;2023-03-01T01:56:06;1.77;;;1.00;;
44272;SDS011;29964;17.182;-96.766;2023-03-01T01:58:33;3.47;;;1.77;;
44272;SDS011;29964;17.182;-96.766;2023-03-01T02:01:00;7.70;;;1.97;;
44272;SDS011;29964;17.182;-96.766;2023-03-01T02:03:29;4.60;;;1.50;;
44272;SDS011;29964;17.182;-96.766;2023-03-01T02:08:29;4.63;;;2.00;;
44272;SDS011;29964;17.182;-96.766;2023-03-01T02:10:57;1.90;;;1.20;;
44272;SDS011;29964;17.182;-96.766;2023-03-01T02:13:25;5.50;;;2.07;;
44272;SDS011;29964;17.182;-96.766;2023-03-01T02:15:52;6.37;;;2.23;;
44272;SDS011;29964;17.182;-96.766;2023-03-01T02:18:20;5.77;;;1.80;;
44272;SDS011;29964;17.182;-96.766;2023-03-01T02:23:16;1.77;;;1.20;;
44272;SDS011;29964;17.182;-96.766;2023-03-01T02:30:44;5.03;;;1.93;;
44272;SDS011;29964;17.182;-96.766;2023-03-01T02:33:32;4.50;;;2.00;;
44272;SDS011;29964;17.182;-96.766;2023-03-01T02:36:02;5.60;;;2.33;;
44272;SDS011;29964;17.182;-96.766;2023-03-01T02:38:31;2.90;;;1.47;;
44272;SDS011;29964;17.182;-96.766;2023-03-01T02:40:58;2.00;;;1.40;;
44272;SDS011;29964;17.182;-96.766;2023-03-01T02:43:27;6.57;;;1.43;;
44272;SDS011;29964;17.182;-96.766;2023-03-01T02:45:57;2.80;;;1.37;;
44272;SDS011;29964;17.182;-96.766;2023-03-01T02:48:24;1.60;;;1.20;;
44272;SDS011;29964;17.182;-96.766;2023-03-01T02:51:15;7.30;;;1.93;;
44272;SDS011;29964;17.182;-96.766;2023-03-01T02:56:23;3.10;;;1.83;;
44272;SDS011;29964;17.182;-96.766;2023-03-01T02:58:49;4.20;;;1.33;;
44272;SDS011;29964;17.182;-96.766;2023-03-01T03:01:20;1.80;;;1.30;;
44272;SDS011;29964;17.182;-96.766;2023-03-01T03:03:47;7.97;;;1.87;;
44272;SDS011;29964;17.182;-96.766;2023-03-01T03:06:13;4.27;;;1.40;;
44272;SDS011;29964;17.182;-96.766;2023-03-01T03:08:40;2.03;;;0.87;;
44272;SDS011;29964;17.182;-96.766;2023-03-01T03:11:07;1.63;;;0.97;;
44272;SDS011;29964;17.182;-96.766;2023-03-01T03:13:34;1.67;;;1.13;;
44272;SDS011;29964;17.182;-96.766;2023-03-01T03:16:01;3.20;;;1.30;;
44272;SDS011;29964;17.182;-96.766;2023-03-01T03:18:29;1.80;;;1.00;;
44272;SDS011;29964;17.182;-96.766;2023-03-01T03:20:55;1.83;;;0.90;;
44272;SDS011;29964;17.182;-96.766;2023-03-01T03:23:22;2.33;;;1.40;;
44272;SDS011;29964;17.182;-96.766;2023-03-01T03:25:49;3.80;;;1.60;;
44272;SDS011;29964;17.182;-96.766;2023-03-01T03:28:16;3.10;;;1.20;;
44272;SDS011;29964;17.182;-96.766;2023-03-01T03:30:43;2.77;;;1.73;;
44272;SDS011;29964;17.182;-96.766;2023-03-01T03:33:10;2.87;;;1.40;;
44272;SDS011;29964;17.182;-96.766;2023-03-01T03:35:39;5.20;;;1.30;;
44272;SDS011;29964;17.182;-96.766;2023-03-01T03:38:07;4.90;;;1.53;;
44272;SDS011;29964;17.182;-96.766;2023-03-01T03:40:44;2.28;;;1.33;;
44272;SDS011;29964;17.182;-96.766;2023-03-01T03:43:12;2.20;;;1.00;;
44272;SDS011;29964;17.182;-96.766;2023-03-01T03:45:39;0.60;;;0.60;;
44272;SDS011;29964;17.182;-96.766;2023-03-01T03:48:07;7.20;;;1.63;;
44272;SDS011;29964;17.182;-96.766;2023-03-01T03:50:34;2.83;;;1.87;;
44272;SDS011;29964;17.182;-96.766;2023-03-01T03:53:02;3.27;;;1.87;;
44272;SDS011;29964;17.182;-96.766;2023-03-01T03:55:29;5.90;;;2.40;;
44272;SDS011;29964;17.182;-96.766;2023-03-01T03:57:59;14.67;;;3.07;;
44272;SDS011;29964;17.182;-96.766;2023-03-01T04:00:34;4.07;;;2.00;;
44272;SDS011;29964;17.182;-96.766;2023-03-01T04:03:01;16.40;;;2.10;;
44272;SDS011;29964;17.182;-96.766;2023-03-01T04:05:28;1.70;;;1.20;;
44272;SDS011;29964;17.182;-96.766;2023-03-01T04:07:55;4.77;;;2.17;;
44272;SDS011;29964;17.182;-96.766;2023-03-01T04:10:32;21.50;;;2.00;;
44272;SDS011;29964;17.182;-96.766;2023-03-01T04:12:59;1.20;;;0.90;;
44272;SDS011;29964;17.182;-96.766;2023-03-01T04:15:26;2.97;;;1.53;;
44272;SDS011;29964;17.182;-96.766;2023-03-01T04:17:53;1.70;;;1.20;;
44272;SDS011;29964;17.182;-96.766;2023-03-01T04:20:21;5.30;;;2.37;;
44272;SDS011;29964;17.182;-96.766;2023-03-01T04:22:52;7.13;;;1.90;;
44272;SDS011;29964;17.182;-96.766;2023-03-01T04:25:19;5.80;;;1.93;;
44272;SDS011;29964;17.182;-96.766;2023-03-01T04:27:46;4.17;;;1.77;;
44272;SDS011;29964;17.182;-96.766;2023-03-01T04:30:15;2.73;;;1.47;;
44272;SDS011;29964;17.182;-96.766;2023-03-01T04:32:42;2.07;;;1.67;;
44272;SDS011;29964;17.182;-96.766;2023-03-01T04:35:08;9.50;;;1.70;;
44272;SDS011;29964;17.182;-96.766;2023-03-01T04:37:35;5.00;;;2.30;;
44272;SDS011;29964;17.182;-96.766;2023-03-01T04:40:02;2.33;;;1.60;;
44272;SDS011;29964;17.182;-96.766;2023-03-01T04:42:41;1.90;;;1.30;;
44272;SDS011;29964;17.182;-96.766;2023-03-01T04:45:08;4.33;;;1.73;;
44272;SDS011;29964;17.182;-96.766;2023-03-01T04:47:42;2.83;;;1.93;;
44272;SDS011;29964;17.182;-96.766;2023-03-01T04:50:14;5.40;;;2.77;;
44272;SDS011;29964;17.182;-96.766;2023-03-01T04:52:41;1.30;;;1.03;;
44272;SDS011;29964;17.182;-96.766;2023-03-01T04:55:08;2.60;;;0.87;;
44272;SDS011;29964;17.182;-96.766;2023-03-01T04:57:35;2.57;;;1.73;;
44272;SDS011;29964;17.182;-96.766;2023-03-01T05:00:03;6.03;;;1.80;;
44272;SDS011;29964;17.182;-96.766;2023-03-01T05:02:56;3.87;;;1.13;;
44272;SDS011;29964;17.182;-96.766;2023-03-01T05:05:26;3.43;;;1.57;;
44272;SDS011;29964;17.182;-96.766;2023-03-01T05:07:53;1.27;;;0.80;;
44272;SDS011;29964;17.182;-96.766;2023-03-01T05:10:20;3.63;;;1.70;;
44272;SDS011;29964;17.182;-96.766;2023-03-01T05:12:47;5.40;;;1.93;;
44272;SDS011;29964;17.182;-96.766;2023-03-01T05:15:14;2.20;;;1.23;;
44272;SDS011;29964;17.182;-96.766;2023-03-01T05:17:40;3.57;;;2.30;;
44272;SDS011;29964;17.182;-96.766;2023-03-01T05:20:07;2.03;;;1.60;;
44272;SDS011;29964;17.182;-96.766;2023-03-01T05:22:35;27.97;;;1.70;;
44272;SDS011;29964;17.182;-96.766;2023-03-01T05:25:02;3.53;;;1.50;;
44272;SDS011;29964;17.182;-96.766;2023-03-01T05:27:29;2.23;;;1.33;;
44272;SDS011;29964;17.182;-96.766;2023-03-01T05:29:56;1.03;;;0.93;;
44272;SDS011;29964;17.182;-96.766;2023-03-01T05:32:23;5.30;;;1.30;;
44272;SDS011;29964;17.182;-96.766;2023-03-01T05:34:50;2.20;;;1.37;;
44272;SDS011;29964;17.182;-96.766;2023-03-01T05:37:17;2.97;;;1.33;;
44272;SDS011;29964;17.182;-96.766;2023-03-01T05:39:45;1.47;;;1.10;;
44272;SDS011;29964;17.182;-96.766;2023-03-01T05:42:11;2.80;;;1.53;;
44272;SDS011;29964;17.182;-96.766;2023-03-01T05:44:38;2.83;;;1.40;;
44272;SDS011;29964;17.182;-96.766;2023-03-01T05:47:05;1.53;;;1.07;;
44272;SDS011;29964;17.182;-96.766;2023-03-01T05:49:32;4.10;;;0.77;;
44272;SDS011;29964;17.182;-96.766;2023-03-01T05:52:00;4.27;;;0.93;;
44272;SDS011;29964;17.182;-96.766;2023-03-01T05:54:26;1.43;;;1.10;;
44272;SDS011;29964;17.182;-96.766;2023-03-01T05:56:53;2.73;;;1.70;;
44272;SDS011;29964;17.182;-96.766;2023-03-01T05:59:20;1.97;;;1.23;;
44272;SDS011;29964;17.182;-96.766;2023-03-01T06:01:46;1.03;;;0.90;;
44272;SDS011;29964;17.182;-96.766;2023-03-01T06:04:13;1.83;;;1.33;;
44272;SDS011;29964;17.182;-96.766;2023-03-01T06:06:40;1.80;;;1.40;;
44272;SDS011;29964;17.182;-96.766;2023-03-01T06:09:07;1.53;;;1.07;;
44272;SDS011;29964;17.182;-96.766;2023-03-01T06:11:35;3.13;;;1.43;;
44272;SDS011;29964;17.182;-96.766;2023-03-01T06:14:03;1.20;;;1.10;;
44272;SDS011;29964;17.182;-96.766;2023-03-01T06:16:31;2.50;;;1.50;;
44272;SDS011;29964;17.182;-96.766;2023-03-01T06:18:58;1.87;;;1.27;;
44272;SDS011;29964;17.182;-96.766;2023-03-01T06:21:24;3.10;;;1.17;;
44272;SDS011;29964;17.182;-96.766;2023-03-01T06:23:51;2.00;;;1.00;;
44272;SDS011;29964;17.182;-96.766;2023-03-01T06:26:18;2.77;;;1.03;;
44272;SDS011;29964;17.182;-96.766;2023-03-01T06:28:45;2.93;;;1.70;;
44272;SDS011;29964;17.182;-96.766;2023-03-01T06:31:12;2.57;;;1.17;;
44272;SDS011;29964;17.182;-96.766;2023-03-01T06:33:38;4.93;;;2.80;;
44272;SDS011;29964;17.182;-96.766;2023-03-01T06:36:05;11.57;;;1.77;;
44272;SDS011;29964;17.182;-96.766;2023-03-01T06:38:32;3.43;;;1.97;;
44272;SDS011;29964;17.182;-96.766;2023-03-01T06:40:59;1.90;;;1.10;;
44272;SDS011;29964;17.182;-96.766;2023-03-01T06:43:27;1.90;;;1.20;;
44272;SDS011;29964;17.182;-96.766;2023-03-01T06:45:54;3.10;;;1.77;;
44272;SDS011;29964;17.182;-96.766;2023-03-01T06:48:21;2.80;;;1.50;;
44272;SDS011;29964;17.182;-96.766;2023-03-01T06:50:47;5.07;;;2.03;;
44272;SDS011;29964;17.182;-96.766;2023-03-01T06:53:14;13.20;;;1.27;;
44272;SDS011;29964;17.182;-96.766;2023-03-01T06:55:41;1.67;;;1.07;;
44272;SDS011;29964;17.182;-96.766;2023-03-01T06:58:08;1.73;;;1.13;;
44272;SDS011;29964;17.182;-96.766;2023-03-01T07:00:35;1.40;;;0.97;;
44272;SDS011;29964;17.182;-96.766;2023-03-01T07:03:02;9.87;;;1.67;;
44272;SDS011;29964;17.182;-96.766;2023-03-01T07:05:29;2.20;;;1.33;;
44272;SDS011;29964;17.182;-96.766;2023-03-01T07:07:56;6.40;;;1.70;;
44272;SDS011;29964;17.182;-96.766;2023-03-01T07:10:23;8.13;;;1.37;;
44272;SDS011;29964;17.182;-96.766;2023-03-01T07:12:50;2.10;;;1.50;;
44272;SDS011;29964;17.182;-96.766;2023-03-01T07:15:17;6.20;;;1.50;;
44272;SDS011;29964;17.182;-96.766;2023-03-01T07:17:43;4.20;;;1.77;;
44272;SDS011;29964;17.182;-96.766;2023-03-01T07:20:12;0.70;;;0.70;;
44272;SDS011;29964;17.182;-96.766;2023-03-01T07:22:40;1.30;;;1.10;;
44272;SDS011;29964;17.182;-96.766;2023-03-01T07:25:08;2.00;;;1.20;;
44272;SDS011;29964;17.182;-96.766;2023-03-01T07:27:35;2.03;;;1.40;;
44272;SDS011;29964;17.182;-96.766;2023-03-01T07:30:02;1.33;;;0.93;;
44272;SDS011;29964;17.182;-96.766;2023-03-01T07:32:29;1.83;;;1.17;;
44272;SDS011;29964;17.182;-96.766;2023-03-01T07:34:55;1.60;;;0.80;;
44272;SDS011;29964;17.182;-96.766;2023-03-01T07:37:22;3.30;;;2.07;;
44272;SDS011;29964;17.182;-96.766;2023-03-01T07:39:49;10.77;;;2.10;;
44272;SDS011;29964;17.182;-96.766;2023-03-01T07:42:16;1.03;;;0.87;;
44272;SDS011;29964;17.182;-96.766;2023-03-01T07:44:42;5.20;;;1.73;;
44272;SDS011;29964;17.182;-96.766;2023-03-01T07:47:09;2.00;;;1.30;;
44272;SDS011;29964;17.182;-96.766;2023-03-01T07:49:36;1.50;;;1.00;;
44272;SDS011;29964;17.182;-96.766;2023-03-01T07:52:02;8.67;;;1.00;;
44272;SDS011;29964;17.182;-96.766;2023-03-01T07:54:29;2.30;;;1.47;;
44272;SDS011;29964;17.182;-96.766;2023-03-01T07:56:56;3.17;;;0.77;;
44272;SDS011;29964;17.182;-96.766;2023-03-01T07:59:23;4.10;;;1.47;;
44272;SDS011;29964;17.182;-96.766;2023-03-01T08:01:54;2.00;;;0.63;;
44272;SDS011;29964;17.182;-96.766;2023-03-01T08:04:22;5.30;;;1.47;;
44272;SDS011;29964;17.182;-96.766;2023-03-01T08:06:50;1.33;;;1.03;;
44272;SDS011;29964;17.182;-96.766;2023-03-01T08:09:17;2.47;;;1.23;;
44272;SDS011;29964;17.182;-96.766;2023-03-01T08:11:44;3.23;;;1.10;;
44272;SDS011;29964;17.182;-96.766;2023-03-01T08:14:10;1.00;;;0.70;;
44272;SDS011;29964;17.182;-96.766;2023-03-01T08:16:37;2.00;;;0.73;;
44272;SDS011;29964;17.182;-96.766;2023-03-01T08:19:05;7.30;;;1.00;;
44272;SDS011;29964;17.182;-96.766;2023-03-01T08:21:32;3.13;;;0.93;;
44272;SDS011;29964;17.182;-96.766;2023-03-01T08:24:03;2.33;;;1.20;;
44272;SDS011;29964;17.182;-96.766;2023-03-01T08:26:31;2.63;;;1.13;;
44272;SDS011;29964;17.182;-96.766;2023-03-01T08:28:59;1.50;;;1.17;;
44272;SDS011;29964;17.182;-96.766;2023-03-01T08:31:27;2.53;;;0.70;;
44272;SDS011;29964;17.182;-96.766;2023-03-01T08:33:56;1.50;;;0.97;;
44272;SDS011;29964;17.182;-96.766;2023-03-01T08:36:24;1.70;;;0.93;;
44272;SDS011;29964;17.182;-96.766;2023-03-01T08:38:51;1.43;;;0.83;;
44272;SDS011;29964;17.182;-96.766;2023-03-01T08:41:18;2.40;;;1.43;;
44272;SDS011;29964;17.182;-96.766;2023-03-01T08:43:45;1.63;;;0.93;;
44272;SDS011;29964;17.182;-96.766;2023-03-01T08:46:12;1.50;;;1.10;;
44272;SDS011;29964;17.182;-96.766;2023-03-01T08:48:38;0.90;;;0.80;;
44272;SDS011;29964;17.182;-96.766;2023-03-01T08:51:09;2.73;;;1.20;;
44272;SDS011;29964;17.182;-96.766;2023-03-01T08:53:35;1.50;;;1.13;;
44272;SDS011;29964;17.182;-96.766;2023-03-01T08:56:02;0.97;;;0.77;;
44272;SDS011;29964;17.182;-96.766;2023-03-01T08:58:29;3.83;;;1.50;;
44272;SDS011;29964;17.182;-96.766;2023-03-01T09:00:56;0.97;;;0.87;;
44272;SDS011;29964;17.182;-96.766;2023-03-01T09:03:23;1.13;;;0.83;;
44272;SDS011;29964;17.182;-96.766;2023-03-01T09:05:51;4.13;;;1.70;;
44272;SDS011;29964;17.182;-96.766;2023-03-01T09:08:18;2.13;;;1.43;;
44272;SDS011;29964;17.182;-96.766;2023-03-01T09:10:45;1.03;;;0.77;;
44272;SDS011;29964;17.182;-96.766;2023-03-01T09:13:12;1.87;;;1.07;;
44272;SDS011;29964;17.182;-96.766;2023-03-01T09:15:38;1.03;;;0.70;;
44272;SDS011;29964;17.182;-96.766;2023-03-01T09:18:05;2.23;;;1.33;;
44272;SDS011;29964;17.182;-96.766;2023-03-01T09:20:32;2.73;;;0.87;;
44272;SDS011;29964;17.182;-96.766;2023-03-01T09:22:59;0.60;;;0.60;;
44272;SDS011;29964;17.182;-96.766;2023-03-01T09:25:26;0.93;;;0.77;;
44272;SDS011;29964;17.182;-96.766;2023-03-01T09:27:53;0.73;;;0.60;;
44272;SDS011;29964;17.182;-96.766;2023-03-01T09:30:20;2.10;;;1.43;;
44272;SDS011;29964;17.182;-96.766;2023-03-01T09:32:47;2.00;;;1.40;;
44272;SDS011;29964;17.182;-96.766;2023-03-01T09:35:14;1.27;;;1.17;;
44272;SDS011;29964;17.182;-96.766;2023-03-01T09:37:41;1.53;;;0.87;;
44272;SDS011;29964;17.182;-96.766;2023-03-01T09:40:15;1.23;;;0.90;;
44272;SDS011;29964;17.182;-96.766;2023-03-01T09:42:46;3.60;;;1.27;;
44272;SDS011;29964;17.182;-96.766;2023-03-01T09:45:19;1.40;;;0.80;;
44272;SDS011;29964;17.182;-96.766;2023-03-01T09:47:50;1.13;;;0.73;;
44272;SDS011;29964;17.182;-96.766;2023-03-01T09:50:19;0.67;;;0.60;;
44272;SDS011;29964;17.182;-96.766;2023-03-01T09:52:47;1.63;;;0.97;;
44272;SDS011;29964;17.182;-96.766;2023-03-01T09:55:38;1.90;;;1.13;;
44272;SDS011;29964;17.182;-96.766;2023-03-01T09:58:49;9.37;;;1.67;;
44272;SDS011;29964;17.182;-96.766;2023-03-01T10:00:50;1.97;;;1.10;;
44272;SDS011;29964;17.182;-96.766;2023-03-01T10:03:28;5.57;;;1.23;;
44272;SDS011;29964;17.182;-96.766;2023-03-01T10:11:01;1.03;;;0.57;;
44272;SDS011;29964;17.182;-96.766;2023-03-01T10:13:34;1.40;;;0.83;;
44272;SDS011;29964;17.182;-96.766;2023-03-01T10:16:05;1.23;;;0.80;;
44272;SDS011;29964;17.182;-96.766;2023-03-01T10:18:36;0.40;;;0.40;;
44272;SDS011;29964;17.182;-96.766;2023-03-01T10:23:40;1.40;;;0.93;;
44272;SDS011;29964;17.182;-96.766;2023-03-01T10:31:18;0.90;;;0.80;;
44272;SDS011;29964;17.182;-96.766;2023-03-01T10:33:47;0.60;;;0.60;;
44272;SDS011;29964;17.182;-96.766;2023-03-01T10:36:18;2.77;;;1.67;;
44272;SDS011;29964;17.182;-96.766;2023-03-01T10:38:49;1.13;;;0.60;;
44272;SDS011;29964;17.182;-96.766;2023-03-01T10:41:19;0.87;;;0.77;;
44272;SDS011;29964;17.182;-96.766;2023-03-01T10:43:49;2.47;;;1.63;;
44272;SDS011;29964;17.182;-96.766;2023-03-01T10:46:24;1.30;;;1.03;;
44272;SDS011;29964;17.182;-96.766;2023-03-01T10:51:18;2.10;;;1.33;;
44272;SDS011;29964;17.182;-96.766;2023-03-01T10:53:48;1.07;;;0.73;;
44272;SDS011;29964;17.182;-96.766;2023-03-01T10:56:17;2.33;;;1.23;;
44272;SDS011;29964;17.182;-96.766;2023-03-01T10:58:59;7.20;;;1.90;;
44272;SDS011;29964;17.182;-96.766;2023-03-01T11:01:30;4.10;;;1.50;;
44272;SDS011;29964;17.182;-96.766;2023-03-01T11:06:34;1.27;;;1.00;;
44272;SDS011;29964;17.182;-96.766;2023-03-01T11:09:13;1.23;;;0.77;;
44272;SDS011;29964;17.182;-96.766;2023-03-01T11:11:41;2.70;;;1.10;;
44272;SDS011;29964;17.182;-96.766;2023-03-01T11:16:41;1.00;;;0.90;;
44272;SDS011;29964;17.182;-96.766;2023-03-01T11:21:39;0.73;;;0.70;;
44272;SDS011;29964;17.182;-96.766;2023-03-01T11:24:11;3.53;;;0.83;;
44272;SDS011;29964;17.182;-96.766;2023-03-01T11:26:43;1.27;;;0.57;;
44272;SDS011;29964;17.182;-96.766;2023-03-01T11:29:34;1.03;;;0.77;;
44272;SDS011;29964;17.182;-96.766;2023-03-01T11:31:59;0.90;;;0.60;;
44272;SDS011;29964;17.182;-96.766;2023-03-01T11:37:26;1.17;;;0.80;;
44272;SDS011;29964;17.182;-96.766;2023-03-01T11:40:11;0.47;;;0.47;;
44272;SDS011;29964;17.182;-96.766;2023-03-01T11:42:44;0.80;;;0.60;;
44272;SDS011;29964;17.182;-96.766;2023-03-01T11:45:12;1.23;;;0.70;;
44272;SDS011;29964;17.182;-96.766;2023-03-01T11:47:43;1.77;;;1.13;;
44272;SDS011;29964;17.182;-96.766;2023-03-01T11:50:26;2.30;;;0.77;;
44272;SDS011;29964;17.182;-96.766;2023-03-01T12:00:50;3.10;;;1.13;;
44272;SDS011;29964;17.182;-96.766;2023-03-01T12:03:30;2.10;;;1.53;;
44272;SDS011;29964;17.182;-96.766;2023-03-01T12:08:38;1.90;;;0.80;;
44272;SDS011;29964;17.182;-96.766;2023-03-01T12:11:17;1.73;;;0.60;;
44272;SDS011;29964;17.182;-96.766;2023-03-01T12:22:21;1.17;;;1.00;;
44272;SDS011;29964;17.182;-96.766;2023-03-01T12:25:00;0.80;;;0.60;;
44272;SDS011;29964;17.182;-96.766;2023-03-01T12:27:37;3.43;;;1.73;;
44272;SDS011;29964;17.182;-96.766;2023-03-01T12:32:43;1.73;;;1.03;;
44272;SDS011;29964;17.182;-96.766;2023-03-01T12:35:23;0.50;;;0.50;;
44272;SDS011;29964;17.182;-96.766;2023-03-01T12:37:54;0.40;;;0.40;;
44272;SDS011;29964;17.182;-96.766;2023-03-01T12:48:13;2.03;;;1.10;;
44272;SDS011;29964;17.182;-96.766;2023-03-01T12:50:52;0.60;;;0.50;;
44272;SDS011;29964;17.182;-96.766;2023-03-01T12:55:46;24.10;;;1.53;;
44272;SDS011;29964;17.182;-96.766;2023-03-01T13:01:07;0.40;;;0.40;;
44272;SDS011;29964;17.182;-96.766;2023-03-01T13:11:27;1.67;;;1.07;;
44272;SDS011;29964;17.182;-96.766;2023-03-01T13:14:23;1.73;;;1.03;;
44272;SDS011;29964;17.182;-96.766;2023-03-01T13:16:40;1.43;;;0.83;;
44272;SDS011;29964;17.182;-96.766;2023-03-01T13:19:13;7.73;;;2.10;;
44272;SDS011;29964;17.182;-96.766;2023-03-01T13:21:41;10.90;;;2.13;;
44272;SDS011;29964;17.182;-96.766;2023-03-01T13:29:51;1.90;;;1.07;;
44272;SDS011;29964;17.182;-96.766;2023-03-01T13:32:22;5.00;;;1.50;;
44272;SDS011;29964;17.182;-96.766;2023-03-01T13:34:55;3.63;;;2.13;;
44272;SDS011;29964;17.182;-96.766;2023-03-01T13:37:24;17.50;;;3.40;;
44272;SDS011;29964;17.182;-96.766;2023-03-01T13:39:51;26.17;;;3.80;;
44272;SDS011;29964;17.182;-96.766;2023-03-01T13:44:54;3.77;;;2.20;;
44272;SDS011;29964;17.182;-96.766;2023-03-01T13:47:20;6.97;;;2.13;;
44272;SDS011;29964;17.182;-96.766;2023-03-01T13:49:49;4.60;;;2.73;;
44272;SDS011;29964;17.182;-96.766;2023-03-01T13:54:51;3.10;;;1.50;;
44272;SDS011;29964;17.182;-96.766;2023-03-01T13:57:20;9.40;;;1.83;;
44272;SDS011;29964;17.182;-96.766;2023-03-01T13:59:49;5.40;;;1.93;;
44272;SDS011;29964;17.182;-96.766;2023-03-01T14:02:15;24.97;;;2.87;;
44272;SDS011;29964;17.182;-96.766;2023-03-01T14:04:42;35.47;;;2.73;;
44272;SDS011;29964;17.182;-96.766;2023-03-01T14:07:10;14.70;;;2.63;;
44272;SDS011;29964;17.182;-96.766;2023-03-01T14:09:41;15.10;;;2.47;;
44272;SDS011;29964;17.182;-96.766;2023-03-01T14:15:02;5.00;;;1.85;;
44272;SDS011;29964;17.182;-96.766;2023-03-01T14:17:43;7.00;;;2.23;;
44272;SDS011;29964;17.182;-96.766;2023-03-01T14:20:16;12.10;;;1.87;;
44272;SDS011;29964;17.182;-96.766;2023-03-01T14:22:43;3.33;;;1.40;;
44272;SDS011;29964;17.182;-96.766;2023-03-01T14:27:54;14.00;;;1.67;;
44272;SDS011;29964;17.182;-96.766;2023-03-01T14:30:22;8.13;;;1.60;;
44272;SDS011;29964;17.182;-96.766;2023-03-01T14:33:03;2.63;;;1.33;;
44272;SDS011;29964;17.182;-96.766;2023-03-01T14:35:32;4.57;;;2.17;;
44272;SDS011;29964;17.182;-96.766;2023-03-01T14:37:59;3.00;;;1.77;;
44272;SDS011;29964;17.182;-96.766;2023-03-01T14:42:56;2.60;;;1.70;;
44272;SDS011;29964;17.182;-96.766;2023-03-01T14:45:24;3.23;;;1.93;;
44272;SDS011;29964;17.182;-96.766;2023-03-01T14:47:51;3.20;;;2.03;;
44272;SDS011;29964;17.182;-96.766;2023-03-01T14:50:26;16.33;;;2.20;;
44272;SDS011;29964;17.182;-96.766;2023-03-01T14:52:54;2.83;;;2.03;;
44272;SDS011;29964;17.182;-96.766;2023-03-01T14:55:25;12.83;;;2.90;;
44272;SDS011;29964;17.182;-96.766;2023-03-01T14:57:53;9.33;;;4.37;;
44272;SDS011;29964;17.182;-96.766;2023-03-01T15:00:21;13.73;;;3.63;;
44272;SDS011;29964;17.182;-96.766;2023-03-01T15:02:48;4.17;;;3.03;;
44272;SDS011;29964;17.182;-96.766;2023-03-01T15:05:16;6.77;;;3.33;;
44272;SDS011;29964;17.182;-96.766;2023-03-01T15:07:44;18.93;;;3.67;;
44272;SDS011;29964;17.182;-96.766;2023-03-01T15:10:24;6.80;;;2.47;;
44272;SDS011;29964;17.182;-96.766;2023-03-01T15:12:54;6.00;;;2.97;;
44272;SDS011;29964;17.182;-96.766;2023-03-01T15:17:54;7.07;;;3.73;;
44272;SDS011;29964;17.182;-96.766;2023-03-01T15:20:22;6.32;;;2.55;;
44272;SDS011;29964;17.182;-96.766;2023-03-01T15:22:51;3.87;;;2.33;;
44272;SDS011;29964;17.182;-96.766;2023-03-01T15:25:18;8.93;;;3.03;;
44272;SDS011;29964;17.182;-96.766;2023-03-01T15:27:46;4.37;;;2.47;;
44272;SDS011;29964;17.182;-96.766;2023-03-01T15:30:17;5.43;;;2.37;;
44272;SDS011;29964;17.182;-96.766;2023-03-01T15:32:44;11.10;;;2.27;;
44272;SDS011;29964;17.182;-96.766;2023-03-01T15:37:56;3.80;;;2.00;;
44272;SDS011;29964;17.182;-96.766;2023-03-01T15:40:26;12.50;;;3.23;;
44272;SDS011;29964;17.182;-96.766;2023-03-01T15:43:04;5.83;;;3.10;;
44272;SDS011;29964;17.182;-96.766;2023-03-01T15:45:31;2.83;;;1.90;;
44272;SDS011;29964;17.182;-96.766;2023-03-01T15:48:17;4.03;;;2.63;;
44272;SDS011;29964;17.182;-96.766;2023-03-01T15:50:57;4.60;;;2.43;;
44272;SDS011;29964;17.182;-96.766;2023-03-01T15:53:24;4.27;;;2.33;;
44272;SDS011;29964;17.182;-96.766;2023-03-01T15:55:52;13.80;;;2.67;;
44272;SDS011;29964;17.182;-96.766;2023-03-01T15:58:22;6.10;;;3.17;;
44272;SDS011;29964;17.182;-96.766;2023-03-01T16:00:50;6.43;;;2.90;;
44272;SDS011;29964;17.182;-96.766;2023-03-01T16:03:21;13.87;;;3.10;;
44272;SDS011;29964;17.182;-96.766;2023-03-01T16:05:49;7.33;;;3.63;;
44272;SDS011;29964;17.182;-96.766;2023-03-01T16:08:16;3.63;;;2.43;;
44272;SDS011;29964;17.182;-96.766;2023-03-01T16:10:43;5.90;;;3.00;;
44272;SDS011;29964;17.182;-96.766;2023-03-01T16:13:12;9.00;;;2.87;;
44272;SDS011;29964;17.182;-96.766;2023-03-01T16:15:39;5.87;;;2.87;;
44272;SDS011;29964;17.182;-96.766;2023-03-01T16:18:07;3.90;;;2.47;;
44272;SDS011;29964;17.182;-96.766;2023-03-01T16:20:35;6.40;;;2.73;;
44272;SDS011;29964;17.182;-96.766;2023-03-01T16:23:03;12.15;;;3.40;;